createdAt,value
2019-05-26T05:11:54.408Z,8.26
2019-05-26T05:21:54.034Z,8.32
2019-05-26T05:31:53.453Z,8.29
2019-05-26T05:41:53.586Z,8.64
2019-05-26T05:51:53.677Z,8.96
2019-05-26T06:01:54.079Z,8.75
2019-05-26T06:11:57.087Z,9.23
2019-05-26T06:21:55.668Z,8.54
2019-05-26T06:31:54.367Z,8.74
2019-05-26T06:41:53.745Z,8.28
2019-05-26T06:51:53.912Z,8.78
2019-05-26T07:01:53.472Z,8.75
2019-05-26T07:11:59.951Z,8.84
2019-05-26T07:21:53.814Z,9.18
2019-05-26T07:31:52.778Z,9.15
2019-05-26T07:42:09.252Z,9.30
2019-05-26T07:51:53.819Z,9.26
2019-05-26T08:01:54.594Z,9.29
2019-05-26T08:11:55.702Z,9.51
2019-05-26T08:21:54.694Z,9.01
2019-05-26T08:31:55.537Z,9.05
2019-05-26T08:41:55.598Z,8.69
2019-05-26T08:51:53.854Z,7.88
2019-05-26T09:01:53.911Z,8.00
2019-05-26T09:11:55.616Z,7.69
2019-05-26T09:21:53.630Z,7.02
2019-05-26T09:31:54.288Z,6.63
2019-05-26T09:42:03.256Z,6.98
2019-05-26T09:51:53.849Z,7.30
2019-05-26T10:01:55.764Z,7.90
2019-05-26T10:11:54.106Z,7.82
2019-05-26T10:21:53.977Z,7.97
2019-05-26T10:31:53.807Z,8.15
2019-05-26T10:41:52.981Z,8.60
2019-05-26T10:51:52.944Z,8.94
2019-05-26T11:01:53.007Z,8.35
2019-05-26T11:11:52.982Z,9.51
2019-05-26T11:21:53.362Z,8.51
2019-05-26T11:31:53.374Z,8.97
2019-05-26T11:41:56.301Z,9.03
2019-05-26T11:51:52.225Z,8.83
2019-05-26T12:02:06.637Z,8.74
2019-05-26T12:11:53.996Z,8.77
2019-05-26T12:21:55.457Z,9.28
2019-05-26T12:31:55.393Z,9.59
2019-05-26T12:41:55.055Z,9.25
2019-05-26T12:51:54.109Z,9.40
2019-05-26T13:01:53.560Z,9.33
2019-05-26T13:11:55.682Z,10.10
2019-05-26T13:21:55.350Z,9.88
2019-05-26T13:31:53.524Z,9.47
2019-05-26T13:41:55.284Z,9.54
2019-05-26T13:51:53.401Z,8.70
2019-05-26T14:01:53.351Z,9.06
2019-05-26T14:11:54.062Z,8.68
2019-05-26T14:21:53.422Z,9.10
2019-05-26T14:31:55.382Z,9.05
2019-05-26T14:41:53.454Z,9.33
2019-05-26T14:51:55.776Z,9.22
2019-05-26T15:01:55.337Z,9.10
2019-05-26T15:11:53.474Z,9.05
2019-05-26T15:21:53.433Z,9.11
2019-05-26T15:31:53.619Z,8.85
2019-05-26T15:41:53.979Z,8.76
2019-05-26T15:51:54.725Z,9.06
2019-05-26T16:01:55.369Z,9.15
2019-05-26T16:11:53.484Z,9.44
2019-05-26T16:21:56.227Z,9.39
2019-05-26T16:31:54.039Z,9.51
2019-05-26T16:41:56.039Z,9.29
2019-05-26T16:51:55.222Z,9.41
2019-05-26T17:01:54.245Z,9.60
2019-05-26T17:11:54.212Z,9.73
2019-05-26T17:21:53.868Z,10.17
2019-05-26T17:31:54.050Z,9.93
2019-05-26T17:41:54.226Z,9.85
2019-05-26T17:51:54.188Z,9.81
2019-05-26T18:01:52.783Z,10.10
2019-05-26T18:11:57.250Z,10.03
2019-05-26T18:21:56.036Z,10.04
2019-05-26T18:31:55.319Z,10.11
2019-05-26T18:41:57.923Z,10.24
2019-05-26T18:51:55.987Z,10.04
2019-05-26T19:01:52.273Z,10.25
